sensor_id;sensor_type;location;lat;lon;timestamp;pressure;altitude;pressure_sealevel;temperature;humidity
9225;BME280;4647;48.072;11.616;2023-03-25T00:01:14;94774.88;;;7.63;72.77
9225;BME280;4647;48.072;11.616;2023-03-25T00:03:43;94764.13;;;7.59;72.91
9225;BME280;4647;48.072;11.616;2023-03-25T00:06:15;94761.13;;;7.50;73.07
9225;BME280;4647;48.072;11.616;2023-03-25T00:08:46;94761.22;;;7.43;72.99
9225;BME280;4647;48.072;11.616;2023-03-25T00:11:15;94763.09;;;7.46;73.09
9225;BME280;4647;48.072;11.616;2023-03-25T00:13:43;94753.97;;;7.36;73.04
9225;BME280;4647;48.072;11.616;2023-03-25T00:16:13;94758.47;;;7.47;72.63
9225;BME280;4647;48.072;11.616;2023-03-25T00:18:43;94750.91;;;7.34;72.98
9225;BME280;4647;48.072;11.616;2023-03-25T00:21:12;94752.19;;;7.23;73.47
9225;BME280;4647;48.072;11.616;2023-03-25T00:23:45;94752.31;;;7.12;73.62
9225;BME280;4647;48.072;11.616;2023-03-25T00:26:14;94759.94;;;7.17;73.54
9225;BME280;4647;48.072;11.616;2023-03-25T00:28:42;94746.56;;;7.06;73.48
9225;BME280;4647;48.072;11.616;2023-03-25T00:31:12;94739.44;;;6.86;74.72
9225;BME280;4647;48.072;11.616;2023-03-25T00:33:41;94742.53;;;6.88;74.53
9225;BME280;4647;48.072;11.616;2023-03-25T00:36:11;94745.63;;;6.86;74.50
9225;BME280;4647;48.072;11.616;2023-03-25T00:38:42;94737.78;;;6.99;74.03
9225;BME280;4647;48.072;11.616;2023-03-25T00:41:16;94727.38;;;7.01;73.70
9225;BME280;4647;48.072;11.616;2023-03-25T00:43:47;94730.63;;;7.23;72.91
9225;BME280;4647;48.072;11.616;2023-03-25T00:46:16;94736.69;;;7.30;72.08
9225;BME280;4647;48.072;11.616;2023-03-25T00:48:45;94727.84;;;7.33;71.83
9225;BME280;4647;48.072;11.616;2023-03-25T00:51:13;94731.56;;;7.43;71.44
9225;BME280;4647;48.072;11.616;2023-03-25T00:53:44;94738.88;;;7.43;71.09
9225;BME280;4647;48.072;11.616;2023-03-25T00:56:15;94734.88;;;7.54;70.74
9225;BME280;4647;48.072;11.616;2023-03-25T00:58:43;94729.28;;;7.72;70.15
9225;BME280;4647;48.072;11.616;2023-03-25T01:01:13;94734.06;;;7.91;69.06
9225;BME280;4647;48.072;11.616;2023-03-25T01:03:43;94731.94;;;8.06;68.14
9225;BME280;4647;48.072;11.616;2023-03-25T01:06:15;94742.47;;;8.24;67.09
9225;BME280;4647;48.072;11.616;2023-03-25T01:08:46;94723.16;;;8.29;66.84
9225;BME280;4647;48.072;11.616;2023-03-25T01:11:19;94732.91;;;8.46;66.20
9225;BME280;4647;48.072;11.616;2023-03-25T01:13:48;94718.59;;;8.49;65.81
9225;BME280;4647;48.072;11.616;2023-03-25T01:16:17;94717.00;;;8.55;65.65
9225;BME280;4647;48.072;11.616;2023-03-25T01:18:45;94717.44;;;8.50;65.70
9225;BME280;4647;48.072;11.616;2023-03-25T01:21:14;94728.91;;;8.58;65.42
9225;BME280;4647;48.072;11.616;2023-03-25T01:23:43;94737.22;;;8.67;64.84
9225;BME280;4647;48.072;11.616;2023-03-25T01:26:11;94726.72;;;8.73;65.00
9225;BME280;4647;48.072;11.616;2023-03-25T01:28:43;94723.25;;;8.72;64.39
9225;BME280;4647;48.072;11.616;2023-03-25T01:31:15;94726.97;;;8.58;64.94
9225;BME280;4647;48.072;11.616;2023-03-25T01:33:43;94712.22;;;8.63;64.81
9225;BME280;4647;48.072;11.616;2023-03-25T01:36:12;94710.41;;;8.56;64.88
9225;BME280;4647;48.072;11.616;2023-03-25T01:38:41;94716.25;;;8.51;65.04
9225;BME280;4647;48.072;11.616;2023-03-25T01:41:12;94709.25;;;8.57;64.63
9225;BME280;4647;48.072;11.616;2023-03-25T01:44:05;94716.41;;;8.68;64.69
9225;BME280;4647;48.072;11.616;2023-03-25T01:46:36;94703.38;;;8.63;64.48
9225;BME280;4647;48.072;11.616;2023-03-25T01:49:10;94713.56;;;8.75;64.43
9225;BME280;4647;48.072;11.616;2023-03-25T01:51:44;94712.41;;;8.76;64.12
9225;BME280;4647;48.072;11.616;2023-03-25T01:54:13;94720.75;;;8.85;64.00
9225;BME280;4647;48.072;11.616;2023-03-25T01:56:43;94713.00;;;8.87;63.12
9225;BME280;4647;48.072;11.616;2023-03-25T01:59:17;94720.56;;;8.96;62.50
9225;BME280;4647;48.072;11.616;2023-03-25T02:01:49;94704.66;;;9.01;62.57
9225;BME280;4647;48.072;11.616;2023-03-25T02:04:27;94712.03;;;8.97;62.53
9225;BME280;4647;48.072;11.616;2023-03-25T02:06:59;94721.44;;;8.89;62.32
9225;BME280;4647;48.072;11.616;2023-03-25T02:09:28;94716.09;;;8.85;62.95
9225;BME280;4647;48.072;11.616;2023-03-25T02:11:57;94717.28;;;8.84;62.72
9225;BME280;4647;48.072;11.616;2023-03-25T02:14:32;94722.16;;;8.93;62.88
9225;BME280;4647;48.072;11.616;2023-03-25T02:17:13;94703.00;;;8.84;62.65
9225;BME280;4647;48.072;11.616;2023-03-25T02:20:13;94704.75;;;8.94;62.82
9225;BME280;4647;48.072;11.616;2023-03-25T02:26:32;94690.63;;;8.86;63.17
9225;BME280;4647;48.072;11.616;2023-03-25T02:29:10;94695.03;;;8.77;63.70
9225;BME280;4647;48.072;11.616;2023-03-25T02:32:02;94689.03;;;8.66;63.67
9225;BME280;4647;48.072;11.616;2023-03-25T02:34:44;94688.50;;;8.51;63.97
9225;BME280;4647;48.072;11.616;2023-03-25T02:37:49;94698.00;;;8.36;64.71
9225;BME280;4647;48.072;11.616;2023-03-25T02:40:25;94696.34;;;8.15;65.33
9225;BME280;4647;48.072;11.616;2023-03-25T02:43:00;94697.22;;;8.08;65.30
9225;BME280;4647;48.072;11.616;2023-03-25T02:45:32;94694.94;;;8.07;65.00
9225;BME280;4647;48.072;11.616;2023-03-25T02:48:05;94704.63;;;8.00;65.23
9225;BME280;4647;48.072;11.616;2023-03-25T02:50:39;94694.41;;;7.88;65.38
9225;BME280;4647;48.072;11.616;2023-03-25T02:53:13;94705.25;;;7.85;65.23
9225;BME280;4647;48.072;11.616;2023-03-25T02:55:45;94710.59;;;7.88;64.90
9225;BME280;4647;48.072;11.616;2023-03-25T02:58:16;94702.06;;;7.93;64.78
9225;BME280;4647;48.072;11.616;2023-03-25T03:00:47;94703.00;;;7.80;65.05
9225;BME280;4647;48.072;11.616;2023-03-25T03:03:16;94701.88;;;7.77;65.15
9225;BME280;4647;48.072;11.616;2023-03-25T03:05:48;94707.31;;;7.74;65.68
9225;BME280;4647;48.072;11.616;2023-03-25T03:08:28;94709.13;;;7.84;65.30
9225;BME280;4647;48.072;11.616;2023-03-25T03:11:06;94692.13;;;7.87;65.27
9225;BME280;4647;48.072;11.616;2023-03-25T03:13:48;94698.06;;;8.05;64.46
9225;BME280;4647;48.072;11.616;2023-03-25T03:16:24;94696.13;;;8.06;64.53
9225;BME280;4647;48.072;11.616;2023-03-25T03:19:02;94678.84;;;7.99;64.16
9225;BME280;4647;48.072;11.616;2023-03-25T03:21:37;94694.31;;;7.95;63.99
9225;BME280;4647;48.072;11.616;2023-03-25T03:24:14;94676.59;;;7.94;64.15
9225;BME280;4647;48.072;11.616;2023-03-25T03:26:46;94664.81;;;7.85;64.78
9225;BME280;4647;48.072;11.616;2023-03-25T03:29:19;94682.66;;;7.75;65.46
9225;BME280;4647;48.072;11.616;2023-03-25T03:31:57;94675.06;;;7.66;65.53
9225;BME280;4647;48.072;11.616;2023-03-25T03:34:30;94695.16;;;7.62;65.87
9225;BME280;4647;48.072;11.616;2023-03-25T03:37:06;94694.91;;;7.49;66.53
9225;BME280;4647;48.072;11.616;2023-03-25T03:39:40;94698.38;;;7.50;66.40
9225;BME280;4647;48.072;11.616;2023-03-25T03:42:14;94692.97;;;7.50;66.29
9225;BME280;4647;48.072;11.616;2023-03-25T03:44:48;94688.91;;;7.38;66.30
9225;BME280;4647;48.072;11.616;2023-03-25T03:47:21;94696.56;;;7.39;66.54
9225;BME280;4647;48.072;11.616;2023-03-25T03:49:54;94704.72;;;7.32;66.57
9225;BME280;4647;48.072;11.616;2023-03-25T03:52:26;94709.13;;;7.19;67.25
9225;BME280;4647;48.072;11.616;2023-03-25T03:55:04;94706.78;;;7.21;66.57
9225;BME280;4647;48.072;11.616;2023-03-25T03:57:37;94710.59;;;7.24;66.13
9225;BME280;4647;48.072;11.616;2023-03-25T04:00:12;94707.16;;;7.23;66.23
9225;BME280;4647;48.072;11.616;2023-03-25T04:02:45;94713.06;;;7.11;66.45
9225;BME280;4647;48.072;11.616;2023-03-25T04:05:18;94710.78;;;7.06;66.30
9225;BME280;4647;48.072;11.616;2023-03-25T04:07:57;94722.22;;;7.17;66.19
9225;BME280;4647;48.072;11.616;2023-03-25T04:10:32;94722.66;;;7.12;66.15
9225;BME280;4647;48.072;11.616;2023-03-25T04:13:06;94728.94;;;6.98;66.09
9225;BME280;4647;48.072;11.616;2023-03-25T04:15:38;94730.47;;;6.99;66.23
9225;BME280;4647;48.072;11.616;2023-03-25T04:18:06;94726.63;;;7.00;65.94
9225;BME280;4647;48.072;11.616;2023-03-25T04:20:36;94732.00;;;7.00;66.04
9225;BME280;4647;48.072;11.616;2023-03-25T04:23:10;94738.59;;;6.96;65.80
9225;BME280;4647;48.072;11.616;2023-03-25T04:25:43;94722.78;;;6.98;65.23
9225;BME280;4647;48.072;11.616;2023-03-25T04:28:12;94742.34;;;7.05;64.82
9225;BME280;4647;48.072;11.616;2023-03-25T04:30:42;94737.34;;;7.04;64.73
9225;BME280;4647;48.072;11.616;2023-03-25T04:33:13;94747.63;;;7.16;64.12
9225;BME280;4647;48.072;11.616;2023-03-25T04:35:42;94745.72;;;7.17;63.98
9225;BME280;4647;48.072;11.616;2023-03-25T04:38:11;94733.72;;;7.21;63.78
9225;BME280;4647;48.072;11.616;2023-03-25T04:40:45;94759.06;;;7.27;63.79
9225;BME280;4647;48.072;11.616;2023-03-25T04:43:14;94752.91;;;7.27;63.52
9225;BME280;4647;48.072;11.616;2023-03-25T04:45:43;94767.13;;;7.27;63.58
9225;BME280;4647;48.072;11.616;2023-03-25T04:48:20;94763.63;;;7.30;63.53
9225;BME280;4647;48.072;11.616;2023-03-25T04:50:50;94740.91;;;7.31;63.14
9225;BME280;4647;48.072;11.616;2023-03-25T04:53:20;94760.31;;;7.53;62.66
9225;BME280;4647;48.072;11.616;2023-03-25T04:55:51;94752.63;;;7.52;62.84
9225;BME280;4647;48.072;11.616;2023-03-25T04:58:19;94751.09;;;7.51;62.94
9225;BME280;4647;48.072;11.616;2023-03-25T05:00:50;94748.81;;;7.49;62.94
9225;BME280;4647;48.072;11.616;2023-03-25T05:03:19;94729.69;;;7.40;63.22
9225;BME280;4647;48.072;11.616;2023-03-25T05:05:49;94746.59;;;7.41;63.55
9225;BME280;4647;48.072;11.616;2023-03-25T05:08:18;94745.59;;;7.27;64.39
9225;BME280;4647;48.072;11.616;2023-03-25T05:10:47;94734.59;;;7.11;64.79
9225;BME280;4647;48.072;11.616;2023-03-25T05:13:18;94740.00;;;7.07;65.22
9225;BME280;4647;48.072;11.616;2023-03-25T05:15:47;94738.97;;;6.98;65.56
9225;BME280;4647;48.072;11.616;2023-03-25T05:18:15;94747.31;;;7.11;65.25
9225;BME280;4647;48.072;11.616;2023-03-25T05:20:45;94745.31;;;7.18;65.38
9225;BME280;4647;48.072;11.616;2023-03-25T05:23:15;94746.84;;;7.19;65.28
9225;BME280;4647;48.072;11.616;2023-03-25T05:25:47;94745.31;;;7.18;65.40
9225;BME280;4647;48.072;11.616;2023-03-25T05:28:19;94738.78;;;7.16;65.38
9225;BME280;4647;48.072;11.616;2023-03-25T05:30:48;94746.06;;;7.19;65.34
9225;BME280;4647;48.072;11.616;2023-03-25T05:33:16;94745.94;;;7.29;64.73
9225;BME280;4647;48.072;11.616;2023-03-25T05:35:46;94738.63;;;7.33;64.75
9225;BME280;4647;48.072;11.616;2023-03-25T05:38:15;94753.09;;;7.47;64.16
9225;BME280;4647;48.072;11.616;2023-03-25T05:40:44;94767.00;;;7.76;63.28
9225;BME280;4647;48.072;11.616;2023-03-25T05:43:14;94764.41;;;7.99;62.18
9225;BME280;4647;48.072;11.616;2023-03-25T05:45:50;94757.13;;;8.23;61.46
9225;BME280;4647;48.072;11.616;2023-03-25T05:48:18;94757.25;;;8.16;61.38
9225;BME280;4647;48.072;11.616;2023-03-25T05:50:47;94766.25;;;8.36;61.09
9225;BME280;4647;48.072;11.616;2023-03-25T05:53:15;94764.41;;;8.56;60.74
9225;BME280;4647;48.072;11.616;2023-03-25T05:55:45;94764.50;;;8.49;60.51
9225;BME280;4647;48.072;11.616;2023-03-25T05:58:16;94764.50;;;8.49;60.40
9225;BME280;4647;48.072;11.616;2023-03-25T06:00:44;94755.69;;;8.45;60.39
9225;BME280;4647;48.072;11.616;2023-03-25T06:03:17;94763.97;;;8.35;60.28
9225;BME280;4647;48.072;11.616;2023-03-25T06:05:45;94770.56;;;8.30;60.05
9225;BME280;4647;48.072;11.616;2023-03-25T06:08:14;94765.50;;;8.32;59.67
9225;BME280;4647;48.072;11.616;2023-03-25T06:10:44;94773.31;;;8.23;59.94
9225;BME280;4647;48.072;11.616;2023-03-25T06:13:13;94781.06;;;8.21;59.74
9225;BME280;4647;48.072;11.616;2023-03-25T06:15:41;94797.13;;;8.35;59.92
9225;BME280;4647;48.072;11.616;2023-03-25T06:18:10;94802.53;;;8.31;59.23
9225;BME280;4647;48.072;11.616;2023-03-25T06:20:41;94796.66;;;8.40;58.81
9225;BME280;4647;48.072;11.616;2023-03-25T06:23:11;94805.75;;;8.50;58.12
9225;BME280;4647;48.072;11.616;2023-03-25T06:25:40;94811.78;;;8.61;56.85
9225;BME280;4647;48.072;11.616;2023-03-25T06:28:08;94802.63;;;8.55;56.10
9225;BME280;4647;48.072;11.616;2023-03-25T06:30:37;94807.81;;;8.42;56.18
9225;BME280;4647;48.072;11.616;2023-03-25T06:33:05;94810.16;;;8.40;56.09
9225;BME280;4647;48.072;11.616;2023-03-25T06:35:35;94832.97;;;8.32;56.07
9225;BME280;4647;48.072;11.616;2023-03-25T06:38:06;94818.59;;;8.12;56.33
9225;BME280;4647;48.072;11.616;2023-03-25T06:40:35;94826.47;;;7.95;56.85
9225;BME280;4647;48.072;11.616;2023-03-25T06:43:05;94830.03;;;7.89;57.47
9225;BME280;4647;48.072;11.616;2023-03-25T06:45:33;94837.16;;;7.72;58.22
9225;BME280;4647;48.072;11.616;2023-03-25T06:48:02;94848.78;;;7.65;58.76
9225;BME280;4647;48.072;11.616;2023-03-25T06:50:31;94839.81;;;7.76;58.85
9225;BME280;4647;48.072;11.616;2023-03-25T06:52:59;94841.44;;;7.66;59.44
9225;BME280;4647;48.072;11.616;2023-03-25T06:55:30;94853.44;;;7.61;60.25
9225;BME280;4647;48.072;11.616;2023-03-25T06:57:59;94853.84;;;7.60;60.37
9225;BME280;4647;48.072;11.616;2023-03-25T07:00:27;94852.25;;;7.66;60.40
9225;BME280;4647;48.072;11.616;2023-03-25T07:02:56;94858.88;;;7.58;60.82
9225;BME280;4647;48.072;11.616;2023-03-25T07:05:26;94862.44;;;7.85;60.30
9225;BME280;4647;48.072;11.616;2023-03-25T07:07:54;94856.47;;;8.01;60.47
9225;BME280;4647;48.072;11.616;2023-03-25T07:10:23;94855.84;;;7.90;60.21
9225;BME280;4647;48.072;11.616;2023-03-25T07:12:54;94863.25;;;7.82;60.16
9225;BME280;4647;48.072;11.616;2023-03-25T07:15:22;94864.75;;;7.87;60.19
9225;BME280;4647;48.072;11.616;2023-03-25T07:17:51;94867.94;;;7.75;60.58
9225;BME280;4647;48.072;11.616;2023-03-25T07:20:19;94867.44;;;7.87;60.13
9225;BME280;4647;48.072;11.616;2023-03-25T07:22:48;94866.50;;;8.00;60.23
9225;BME280;4647;48.072;11.616;2023-03-25T07:25:16;94876.72;;;8.16;59.55
9225;BME280;4647;48.072;11.616;2023-03-25T07:27:45;94869.94;;;8.05;60.12
9225;BME280;4647;48.072;11.616;2023-03-25T07:30:16;94881.97;;;7.96;60.12
9225;BME280;4647;48.072;11.616;2023-03-25T07:32:44;94885.03;;;7.98;60.08
9225;BME280;4647;48.072;11.616;2023-03-25T07:35:13;94878.75;;;7.71;61.03
9225;BME280;4647;48.072;11.616;2023-03-25T07:37:41;94888.66;;;7.85;60.92
9225;BME280;4647;48.072;11.616;2023-03-25T07:40:11;94893.28;;;8.18;60.15
9225;BME280;4647;48.072;11.616;2023-03-25T07:42:39;94904.88;;;8.15;59.63
9225;BME280;4647;48.072;11.616;2023-03-25T07:45:09;94898.72;;;8.15;59.83
9225;BME280;4647;48.072;11.616;2023-03-25T07:47:40;94891.19;;;8.33;59.39
9225;BME280;4647;48.072;11.616;2023-03-25T07:50:14;94901.47;;;8.45;58.38
9225;BME280;4647;48.072;11.616;2023-03-25T07:52:43;94895.88;;;8.29;58.84
9225;BME280;4647;48.072;11.616;2023-03-25T07:55:11;94900.59;;;8.55;58.65
9225;BME280;4647;48.072;11.616;2023-03-25T07:57:41;94905.19;;;8.85;58.07
9225;BME280;4647;48.072;11.616;2023-03-25T08:00:11;94898.78;;;8.45;58.28
9225;BME280;4647;48.072;11.616;2023-03-25T08:02:43;94896.06;;;8.45;58.53
9225;BME280;4647;48.072;11.616;2023-03-25T08:05:11;94896.56;;;8.37;59.24
9225;BME280;4647;48.072;11.616;2023-03-25T08:07:46;94900.59;;;8.55;58.76
9225;BME280;4647;48.072;11.616;2023-03-25T08:10:15;94889.19;;;8.41;59.19
9225;BME280;4647;48.072;11.616;2023-03-25T08:12:44;94894.91;;;8.77;58.34
9225;BME280;4647;48.072;11.616;2023-03-25T08:15:13;94893.00;;;9.28;57.59
9225;BME280;4647;48.072;11.616;2023-03-25T08:17:45;94896.53;;;9.48;56.55
9225;BME280;4647;48.072;11.616;2023-03-25T08:20:13;94895.72;;;9.51;56.13
9225;BME280;4647;48.072;11.616;2023-03-25T08:22:43;94901.19;;;9.47;56.29
9225;BME280;4647;48.072;11.616;2023-03-25T08:25:11;94892.41;;;9.63;55.37
9225;BME280;4647;48.072;11.616;2023-03-25T08:27:41;94895.38;;;9.49;56.31
9225;BME280;4647;48.072;11.616;2023-03-25T08:30:11;94880.88;;;9.36;56.45
9225;BME280;4647;48.072;11.616;2023-03-25T08:32:40;94886.41;;;9.29;56.76
9225;BME280;4647;48.072;11.616;2023-03-25T08:35:13;94887.03;;;9.83;55.76
9225;BME280;4647;48.072;11.616;2023-03-25T08:37:43;94882.41;;;9.60;56.28
9225;BME280;4647;48.072;11.616;2023-03-25T08:40:12;94895.47;;;9.42;56.52
9225;BME280;4647;48.072;11.616;2023-03-25T08:42:41;94882.72;;;8.92;57.99
9225;BME280;4647;48.072;11.616;2023-03-25T08:45:11;94887.06;;;9.36;57.26
9225;BME280;4647;48.072;11.616;2023-03-25T08:47:40;94896.94;;;9.46;56.91
9225;BME280;4647;48.072;11.616;2023-03-25T08:50:12;94865.28;;;9.67;56.17
9225;BME280;4647;48.072;11.616;2023-03-25T08:52:41;94891.34;;;10.24;55.10
9225;BME280;4647;48.072;11.616;2023-03-25T08:55:10;94871.81;;;10.32;54.84
9225;BME280;4647;48.072;11.616;2023-03-25T08:57:40;94883.13;;;10.67;54.24
9225;BME280;4647;48.072;11.616;2023-03-25T09:00:11;94879.84;;;10.56;54.26
9225;BME280;4647;48.072;11.616;2023-03-25T09:02:42;94881.66;;;10.62;54.48
9225;BME280;4647;48.072;11.616;2023-03-25T09:05:13;94890.16;;;10.44;54.39
9225;BME280;4647;48.072;11.616;2023-03-25T09:07:43;94889.88;;;10.19;54.71
9225;BME280;4647;48.072;11.616;2023-03-25T09:10:12;94884.72;;;10.05;54.46
9225;BME280;4647;48.072;11.616;2023-03-25T09:12:41;94884.44;;;10.19;54.61
9225;BME280;4647;48.072;11.616;2023-03-25T09:15:11;94883.59;;;10.02;54.75
9225;BME280;4647;48.072;11.616;2023-03-25T09:17:39;94874.84;;;10.14;54.34
9225;BME280;4647;48.072;11.616;2023-03-25T09:20:09;94884.44;;;10.19;53.47
9225;BME280;4647;48.072;11.616;2023-03-25T09:22:40;94882.38;;;10.27;53.83
9225;BME280;4647;48.072;11.616;2023-03-25T09:25:09;94893.75;;;10.18;53.93
9225;BME280;4647;48.072;11.616;2023-03-25T09:27:38;94874.66;;;10.05;54.77
9225;BME280;4647;48.072;11.616;2023-03-25T09:30:08;94871.53;;;10.07;54.67
9225;BME280;4647;48.072;11.616;2023-03-25T09:32:37;94866.09;;;10.07;54.73
9225;BME280;4647;48.072;11.616;2023-03-25T09:35:06;94881.31;;;10.40;53.80
9225;BME280;4647;48.072;11.616;2023-03-25T09:37:35;94860.19;;;10.71;52.57
9225;BME280;4647;48.072;11.616;2023-03-25T09:40:08;94880.94;;;10.78;52.83
9225;BME280;4647;48.072;11.616;2023-03-25T09:42:46;94853.72;;;11.18;50.90
9225;BME280;4647;48.072;11.616;2023-03-25T09:45:30;94846.81;;;11.62;49.89
9225;BME280;4647;48.072;11.616;2023-03-25T09:48:02;94854.97;;;10.61;51.35
9225;BME280;4647;48.072;11.616;2023-03-25T09:50:35;94865.31;;;11.18;50.98
9225;BME280;4647;48.072;11.616;2023-03-25T09:53:10;94854.63;;;11.27;49.89
9225;BME280;4647;48.072;11.616;2023-03-25T09:55:46;94867.88;;;10.73;49.94
9225;BME280;4647;48.072;11.616;2023-03-25T09:58:31;94842.53;;;10.99;49.44
9225;BME280;4647;48.072;11.616;2023-03-25T10:04:21;94851.16;;;11.59;48.39
9225;BME280;4647;48.072;11.616;2023-03-25T10:07:03;94819.41;;;11.89;47.21
9225;BME280;4647;48.072;11.616;2023-03-25T10:09:42;94834.94;;;11.56;47.70
9225;BME280;4647;48.072;11.616;2023-03-25T10:12:28;94843.72;;;11.76;47.54
9225;BME280;4647;48.072;11.616;2023-03-25T10:15:11;94811.84;;;11.19;46.48
9225;BME280;4647;48.072;11.616;2023-03-25T10:17:50;94828.63;;;11.46;47.49
9225;BME280;4647;48.072;11.616;2023-03-25T10:20:40;94823.66;;;12.03;46.15
9225;BME280;4647;48.072;11.616;2023-03-25T10:23:16;94829.34;;;11.79;46.30
9225;BME280;4647;48.072;11.616;2023-03-25T10:25:53;94823.91;;;12.08;46.33
9225;BME280;4647;48.072;11.616;2023-03-25T10:28:31;94821.69;;;11.90;46.31
9225;BME280;4647;48.072;11.616;2023-03-25T10:31:01;94809.53;;;11.95;46.27
9225;BME280;4647;48.072;11.616;2023-03-25T10:33:34;94793.84;;;12.15;46.12
9225;BME280;4647;48.072;11.616;2023-03-25T10:36:06;94801.06;;;11.93;46.61
9225;BME280;4647;48.072;11.616;2023-03-25T10:38:37;94826.81;;;12.01;47.22
9225;BME280;4647;48.072;11.616;2023-03-25T10:41:13;94803.28;;;11.82;47.24
9225;BME280;4647;48.072;11.616;2023-03-25T10:43:46;94798.97;;;11.68;50.27
9225;BME280;4647;48.072;11.616;2023-03-25T10:46:18;94820.56;;;11.43;53.79
9225;BME280;4647;48.072;11.616;2023-03-25T10:48:49;94819.13;;;11.05;53.55
9225;BME280;4647;48.072;11.616;2023-03-25T10:51:20;94830.81;;;11.35;54.33
9225;BME280;4647;48.072;11.616;2023-03-25T10:53:51;94801.69;;;10.90;52.17
9225;BME280;4647;48.072;11.616;2023-03-25T10:56:22;94815.47;;;11.28;51.69
9225;BME280;4647;48.072;11.616;2023-03-25T10:58:56;94805.50;;;11.25;50.61
9225;BME280;4647;48.072;11.616;2023-03-25T11:01:32;94790.84;;;11.06;50.87
9225;BME280;4647;48.072;11.616;2023-03-25T11:04:04;94773.72;;;10.44;52.12
9225;BME280;4647;48.072;11.616;2023-03-25T11:06:36;94803.03;;;10.98;53.18
9225;BME280;4647;48.072;11.616;2023-03-25T11:09:23;94802.59;;;11.78;49.92
9225;BME280;4647;48.072;11.616;2023-03-25T11:11:52;94792.97;;;12.18;48.70
9225;BME280;4647;48.072;11.616;2023-03-25T11:14:26;94788.38;;;12.03;48.07
9225;BME280;4647;48.072;11.616;2023-03-25T11:16:58;94777.38;;;11.93;47.21
9225;BME280;4647;48.072;11.616;2023-03-25T11:19:30;94773.25;;;11.89;48.38
9225;BME280;4647;48.072;11.616;2023-03-25T11:22:09;94774.19;;;12.11;46.92
9225;BME280;4647;48.072;11.616;2023-03-25T11:24:41;94775.13;;;11.76;47.89
9225;BME280;4647;48.072;11.616;2023-03-25T11:27:16;94767.56;;;12.12;47.73
9225;BME280;4647;48.072;11.616;2023-03-25T11:29:53;94774.69;;;11.48;49.47
9225;BME280;4647;48.072;11.616;2023-03-25T11:32:23;94771.69;;;11.59;49.07
9225;BME280;4647;48.072;11.616;2023-03-25T11:35:00;94757.28;;;11.62;49.80
9225;BME280;4647;48.072;11.616;2023-03-25T11:37:29;94761.66;;;11.72;47.74
9225;BME280;4647;48.072;11.616;2023-03-25T11:40:03;94767.63;;;11.96;47.98
9225;BME280;4647;48.072;11.616;2023-03-25T11:42:38;94761.34;;;12.12;47.62
9225;BME280;4647;48.072;11.616;2023-03-25T11:45:18;94767.94;;;11.98;47.40
9225;BME280;4647;48.072;11.616;2023-03-25T11:47:48;94750.06;;;11.55;48.38
9225;BME280;4647;48.072;11.616;2023-03-25T11:50:20;94750.53;;;11.83;48.12
9225;BME280;4647;48.072;11.616;2023-03-25T11:52:52;94749.38;;;11.67;48.47
9225;BME280;4647;48.072;11.616;2023-03-25T11:55:24;94732.63;;;11.85;47.58
9225;BME280;4647;48.072;11.616;2023-03-25T11:57:55;94743.34;;;11.31;48.18
9225;BME280;4647;48.072;11.616;2023-03-25T12:00:31;94753.28;;;11.66;48.06
9225;BME280;4647;48.072;11.616;2023-03-25T12:03:02;94729.31;;;11.78;47.60
9225;BME280;4647;48.072;11.616;2023-03-25T12:05:32;94743.53;;;11.69;48.00
9225;BME280;4647;48.072;11.616;2023-03-25T12:08:10;94727.09;;;11.89;48.58
9225;BME280;4647;48.072;11.616;2023-03-25T12:10:49;94752.03;;;12.25;47.32
9225;BME280;4647;48.072;11.616;2023-03-25T12:13:26;94725.00;;;12.35;46.92
9225;BME280;4647;48.072;11.616;2023-03-25T12:16:09;94723.13;;;12.19;46.69
9225;BME280;4647;48.072;11.616;2023-03-25T12:18:48;94740.28;;;11.74;47.85
9225;BME280;4647;48.072;11.616;2023-03-25T12:21:35;94717.88;;;11.86;47.92
9225;BME280;4647;48.072;11.616;2023-03-25T12:24:19;94732.00;;;11.94;47.35
9225;BME280;4647;48.072;11.616;2023-03-25T12:26:58;94699.47;;;11.78;47.61
9225;BME280;4647;48.072;11.616;2023-03-25T12:29:37;94724.94;;;11.84;47.54
9225;BME280;4647;48.072;11.616;2023-03-25T12:32:19;94714.34;;;11.44;47.22
9225;BME280;4647;48.072;11.616;2023-03-25T12:34:58;94712.00;;;11.88;47.23
9225;BME280;4647;48.072;11.616;2023-03-25T12:37:36;94733.16;;;11.80;47.55
9225;BME280;4647;48.072;11.616;2023-03-25T12:40:35;94725.19;;;11.73;47.76
9225;BME280;4647;48.072;11.616;2023-03-25T12:43:09;94728.31;;;12.01;47.13
9225;BME280;4647;48.072;11.616;2023-03-25T12:45:53;94730.44;;;11.80;47.98
9225;BME280;4647;48.072;11.616;2023-03-25T12:48:37;94732.81;;;11.78;48.07
9225;BME280;4647;48.072;11.616;2023-03-25T12:51:16;94723.22;;;12.28;47.29
9225;BME280;4647;48.072;11.616;2023-03-25T12:53:57;94724.31;;;12.81;45.86
9225;BME280;4647;48.072;11.616;2023-03-25T12:56:40;94731.00;;;11.88;47.49
9225;BME280;4647;48.072;11.616;2023-03-25T12:59:46;94728.09;;;11.95;47.80
9225;BME280;4647;48.072;11.616;2023-03-25T13:02:31;94736.28;;;12.20;47.27
9225;BME280;4647;48.072;11.616;2023-03-25T13:05:13;94722.66;;;11.95;47.78
9225;BME280;4647;48.072;11.616;2023-03-25T13:07:47;94728.53;;;11.64;48.12
9225;BME280;4647;48.072;11.616;2023-03-25T13:10:19;94723.34;;;11.41;49.31
9225;BME280;4647;48.072;11.616;2023-03-25T13:12:49;94718.25;;;11.43;48.71
9225;BME280;4647;48.072;11.616;2023-03-25T13:15:20;94743.03;;;11.29;49.53
9225;BME280;4647;48.072;11.616;2023-03-25T13:17:52;94737.72;;;11.54;49.17
9225;BME280;4647;48.072;11.616;2023-03-25T13:20:28;94743.44;;;11.27;50.58
9225;BME280;4647;48.072;11.616;2023-03-25T13:22:59;94743.34;;;10.69;51.65
9225;BME280;4647;48.072;11.616;2023-03-25T13:25:32;94718.50;;;10.87;51.62
9225;BME280;4647;48.072;11.616;2023-03-25T13:28:06;94708.09;;;10.86;52.10
9225;BME280;4647;48.072;11.616;2023-03-25T13:30:39;94729.28;;;10.74;52.86
9225;BME280;4647;48.072;11.616;2023-03-25T13:33:12;94726.47;;;10.62;52.57
9225;BME280;4647;48.072;11.616;2023-03-25T13:35:46;94723.03;;;10.45;52.26
9225;BME280;4647;48.072;11.616;2023-03-25T13:38:22;94740.63;;;10.69;52.82
9225;BME280;4647;48.072;11.616;2023-03-25T13:41:01;94731.81;;;11.14;52.31
9225;BME280;4647;48.072;11.616;2023-03-25T13:43:36;94739.00;;;10.56;53.19
9225;BME280;4647;48.072;11.616;2023-03-25T13:46:11;94748.72;;;10.17;54.71
9225;BME280;4647;48.072;11.616;2023-03-25T13:48:45;94747.56;;;10.70;54.64
9225;BME280;4647;48.072;11.616;2023-03-25T13:51:18;94738.91;;;10.59;53.76
9225;BME280;4647;48.072;11.616;2023-03-25T13:53:51;94747.41;;;10.77;53.53